Angola, Kansas
Current Conditions -  °F | °C
As of 12:52 PM on Saturday 25 Oct 2014 (Local Time) from KCFV Reporting Station
Clear Clear  
Wind Chill: 77°   Ceiling: Unl
Heat Index: 79°   Visibility: 10mi
Dew Point: 65°   Wind: 7mph
Humidity: 66%   Direction: 170°S
Pressure: 30.06"   Gusts: NA
Location:  37.067°N, 95.5817°W
Report Text: KCFV 251752Z AUTO 17006KT 10SM CLR 25/18 A3006 RMK AO2 SLP173 T02500183 10250 20128 58011
Loading
Personal Weather Stations






























Interactive Weather Map New forecast layout! Learn more

10-Day Weather Forecast

Advertisements
Track Severe Weather on mobile